Terminal Aerodrome Forecast
Issued by NWS

Home | Current Version | Previous Version | Text Only | Print | Product List | Glossary On
Versions: 1 2 3 4 5 6 7 8 9 10 11 12 13 14 15 16 17 18 19 20 21 22 23 24 25 26 27 28 29 30 31 32 33 34 35 36 37 38 39 40
000
FTUS44 KHGX 051618 AAF
TAFCXO
TAF AMD
KCXO 051618Z 0516/0612 13010G18KT P6SM VCTS SCT023 BKN035CB OVC100
      TEMPO 0516/0519 VRB25KT 1SM +TSRA BKN025CB
     FM051900 13014G22KT P6SM VCTS SCT025 BKN035CB
     FM060200 14006KT P6SM VCSH SCT030
     FM060400 14005KT P6SM SCT015 BKN025=

USA.gov is the U.S. government's official web portal to all federal, state and local government web resources and services.